createdAt,value
2019-05-19T00:01:14.097Z,3.83
2019-05-19T00:03:45.602Z,3.60
2019-05-19T00:06:27.462Z,3.77
2019-05-19T00:09:00.475Z,3.77
2019-05-19T00:11:31.685Z,3.47
2019-05-19T00:14:03.266Z,3.40
2019-05-19T00:16:35.088Z,3.83
2019-05-19T00:19:06.499Z,3.43
2019-05-19T00:21:41.389Z,3.63
2019-05-19T00:24:14.022Z,3.70
2019-05-19T00:26:47.691Z,3.90
2019-05-19T00:29:19.682Z,3.20
2019-05-19T00:31:51.336Z,3.80
2019-05-19T00:34:22.735Z,3.77
2019-05-19T01:03:03.337Z,9.87
2019-05-19T01:05:34.981Z,7.33
2019-05-19T01:08:06.325Z,5.90
2019-05-19T01:10:37.708Z,5.33
2019-05-19T01:13:09.195Z,4.30
2019-05-19T01:15:40.810Z,4.23
2019-05-19T01:18:12.460Z,4.00
2019-05-19T01:20:43.569Z,3.60
2019-05-19T01:23:14.518Z,4.00
2019-05-19T01:25:45.123Z,4.40
2019-05-19T01:28:16.110Z,3.77
2019-05-19T01:30:48.840Z,4.33
2019-05-19T01:33:20.114Z,3.90
2019-05-19T01:35:51.461Z,4.17
2019-05-19T01:38:22.727Z,4.40
2019-05-19T01:40:53.385Z,4.33
2019-05-19T01:43:25.329Z,4.53
2019-05-19T01:45:56.373Z,4.43
2019-05-19T01:48:28.135Z,4.67
2019-05-19T01:50:59.791Z,5.30
2019-05-19T01:53:31.415Z,4.97
2019-05-19T01:56:02.690Z,4.90
2019-05-19T01:58:34.654Z,4.70
2019-05-19T02:01:06.183Z,4.70
2019-05-19T02:03:37.971Z,5.20
2019-05-19T02:06:09.230Z,4.63
2019-05-19T02:08:40.597Z,5.17
2019-05-19T02:11:26.388Z,5.07
2019-05-19T02:13:58.407Z,4.93
2019-05-19T02:16:29.100Z,5.20
2019-05-19T02:19:00.394Z,5.10
2019-05-19T02:21:31.313Z,5.27
2019-05-19T02:24:03.140Z,4.90
2019-05-19T02:26:34.706Z,5.50
2019-05-19T02:29:06.294Z,4.67
2019-05-19T02:31:37.646Z,5.10
2019-05-19T02:34:09.198Z,5.03
2019-05-19T02:36:40.422Z,5.57
2019-05-19T02:39:11.897Z,6.60
2019-05-19T02:41:46.006Z,6.50
2019-05-19T02:44:19.368Z,6.37
2019-05-19T02:46:50.436Z,5.97
2019-05-19T02:49:21.823Z,4.67
2019-05-19T02:51:55.050Z,3.97
2019-05-19T02:54:27.404Z,4.20
2019-05-19T02:56:58.673Z,3.67
2019-05-19T02:59:32.307Z,3.80
2019-05-19T03:02:14.163Z,3.40
2019-05-19T03:04:45.546Z,3.20
2019-05-19T03:07:16.868Z,3.30
2019-05-19T03:09:48.476Z,3.60
2019-05-19T03:12:20.202Z,3.63
2019-05-19T03:14:55.534Z,2.93
2019-05-19T03:17:27.176Z,3.00
2019-05-19T03:19:58.556Z,3.57
2019-05-19T03:22:29.946Z,3.27
2019-05-19T03:25:01.055Z,3.50
2019-05-19T03:27:32.290Z,3.60
2019-05-19T03:30:21.915Z,3.23
2019-05-19T03:32:56.248Z,3.27
2019-05-19T03:35:39.551Z,3.60
2019-05-19T03:38:11.120Z,3.27
2019-05-19T03:40:42.729Z,3.77
2019-05-19T03:43:13.708Z,4.47
2019-05-19T03:45:44.819Z,4.37
2019-05-19T03:48:15.825Z,4.03
2019-05-19T03:50:53.542Z,3.93
2019-05-19T03:53:24.560Z,3.73
2019-05-19T03:55:55.915Z,3.97
2019-05-19T03:58:27.599Z,4.97
2019-05-19T04:00:58.823Z,4.73
2019-05-19T04:03:29.478Z,4.33
2019-05-19T04:06:01.042Z,4.80
2019-05-19T04:08:32.263Z,4.17
2019-05-19T04:11:03.193Z,4.30
2019-05-19T04:13:33.814Z,4.17
2019-05-19T04:16:10.096Z,4.17
2019-05-19T04:18:41.987Z,4.13
2019-05-19T04:21:13.081Z,4.83
2019-05-19T04:23:44.746Z,5.03
2019-05-19T04:26:32.846Z,4.17
2019-05-19T04:29:04.127Z,5.13
2019-05-19T04:31:36.737Z,4.87
2019-05-19T04:34:08.457Z,4.80
2019-05-19T04:36:39.789Z,4.83
2019-05-19T04:39:10.447Z,4.63
2019-05-19T04:41:42.262Z,4.73
2019-05-19T04:44:13.243Z,5.03
2019-05-19T04:46:48.290Z,5.03
2019-05-19T04:49:19.525Z,4.90
2019-05-19T04:52:05.460Z,5.20
2019-05-19T04:54:23.652Z,5.23
2019-05-19T04:56:54.579Z,5.07
2019-05-19T04:59:26.644Z,4.43
2019-05-19T05:01:57.988Z,5.07
2019-05-19T05:04:29.848Z,5.03
2019-05-19T05:07:01.553Z,4.90
2019-05-19T05:09:32.781Z,5.60
2019-05-19T05:12:03.836Z,5.37
2019-05-19T05:14:34.755Z,5.00
2019-05-19T05:17:06.103Z,5.43
2019-05-19T05:19:37.035Z,4.50
2019-05-19T05:22:21.331Z,4.60
2019-05-19T05:24:43.427Z,4.67
2019-05-19T05:27:14.775Z,4.20
2019-05-19T05:29:46.379Z,4.40
2019-05-19T05:32:17.373Z,4.47
2019-05-19T05:34:48.293Z,4.90
2019-05-19T05:37:19.793Z,4.30
2019-05-19T05:39:51.334Z,4.10
2019-05-19T05:42:23.374Z,4.30
2019-05-19T05:44:54.308Z,4.00
2019-05-19T05:47:26.038Z,4.10
2019-05-19T05:49:57.360Z,3.90
2019-05-19T05:52:38.112Z,5.40
2019-05-19T05:55:01.395Z,4.40
2019-05-19T05:57:38.008Z,4.20
2019-05-19T06:00:09.800Z,4.63
2019-05-19T06:10:55.310Z,4.30
2019-05-19T06:16:12.004Z,3.70
2019-05-19T06:18:46.188Z,4.00
2019-05-19T06:21:17.451Z,3.93
2019-05-19T06:23:50.939Z,5.03
2019-05-19T06:26:22.620Z,5.00
2019-05-19T06:29:13.117Z,5.10
2019-05-19T06:31:49.502Z,5.83
2019-05-19T06:37:03.411Z,6.40
2019-05-19T06:39:47.239Z,6.27
2019-05-19T06:42:18.020Z,5.73
2019-05-19T06:44:53.160Z,6.40
2019-05-19T06:47:24.510Z,6.10
2019-05-19T06:52:38.363Z,6.83
2019-05-19T06:57:51.323Z,6.57
2019-05-19T07:00:41.235Z,6.70
2019-05-19T07:03:41.017Z,5.70
2019-05-19T07:09:12.860Z,6.10
2019-05-19T07:11:50.670Z,6.20
2019-05-19T07:14:26.040Z,6.10
2019-05-19T07:16:58.659Z,5.80
2019-05-19T07:19:30.374Z,5.63
2019-05-19T07:22:01.369Z,5.67
2019-05-19T07:24:34.785Z,5.30
2019-05-19T07:27:14.521Z,4.70
2019-05-19T07:29:47.930Z,4.67
2019-05-19T07:32:24.365Z,5.33
2019-05-19T07:34:59.894Z,5.63
2019-05-19T07:37:31.516Z,5.03
2019-05-19T07:40:03.824Z,4.47
2019-05-19T07:42:34.419Z,4.30
2019-05-19T07:45:06.459Z,3.90
2019-05-19T07:47:37.690Z,3.67
2019-05-19T07:50:08.668Z,3.80
2019-05-19T07:52:39.909Z,3.50
2019-05-19T07:55:13.001Z,3.53
2019-05-19T07:57:49.774Z,3.77
2019-05-19T08:00:20.402Z,3.23
2019-05-19T08:02:51.753Z,3.50
2019-05-19T08:05:26.907Z,3.23
2019-05-19T08:07:58.529Z,3.00
2019-05-19T08:10:29.811Z,3.27
2019-05-19T08:13:01.679Z,3.00
2019-05-19T08:15:33.214Z,2.77
2019-05-19T08:18:08.200Z,2.80
2019-05-19T08:20:39.251Z,3.37
2019-05-19T08:23:10.958Z,2.90
2019-05-19T08:25:42.191Z,3.30
2019-05-19T08:28:20.423Z,3.20
2019-05-19T08:30:52.071Z,3.10
2019-05-19T08:33:24.434Z,2.77
2019-05-19T08:35:56.787Z,2.73
2019-05-19T08:38:27.818Z,2.83
2019-05-19T08:40:59.363Z,2.93
2019-05-19T08:43:30.860Z,3.03
2019-05-19T08:46:02.181Z,3.10
2019-05-19T08:48:36.440Z,3.03
2019-05-19T08:51:07.954Z,2.90
2019-05-19T08:53:39.501Z,2.77
2019-05-19T08:56:11.098Z,3.00
2019-05-19T08:58:42.310Z,2.77
2019-05-19T09:01:13.658Z,3.20
2019-05-19T09:03:44.805Z,2.40
2019-05-19T09:06:16.063Z,3.00
2019-05-19T09:08:47.506Z,2.63
2019-05-19T09:11:19.159Z,3.05
2019-05-19T09:13:50.811Z,2.65
2019-05-19T09:16:26.649Z,2.60
2019-05-19T09:18:58.607Z,2.17
2019-05-19T09:21:30.212Z,2.50
2019-05-19T09:24:02.972Z,2.00
2019-05-19T09:26:34.960Z,2.13
2019-05-19T09:29:06.183Z,2.30
2019-05-19T09:31:41.097Z,2.10
2019-05-19T09:34:10.818Z,1.90
2019-05-19T09:36:47.069Z,1.57
2019-05-19T09:39:19.012Z,1.80
2019-05-19T09:41:50.376Z,1.50
2019-05-19T09:44:22.032Z,2.67
2019-05-19T09:47:08.624Z,1.65
2019-05-19T09:49:41.321Z,1.50
2019-05-19T09:52:16.519Z,2.00
2019-05-19T09:54:52.635Z,1.37
2019-05-19T09:57:28.523Z,1.30
2019-05-19T09:59:59.812Z,1.50
2019-05-19T10:02:31.455Z,1.60
2019-05-19T10:05:03.318Z,1.67
2019-05-19T10:07:35.233Z,1.40
2019-05-19T10:10:16.059Z,1.37
2019-05-19T10:12:47.530Z,1.40
2019-05-19T10:15:26.381Z,1.60
2019-05-19T10:17:57.352Z,1.80
2019-05-19T10:20:27.965Z,1.80
2019-05-19T10:22:59.513Z,1.37
2019-05-19T10:25:37.506Z,1.65
2019-05-19T10:28:09.473Z,1.57
2019-05-19T10:30:41.404Z,1.35
2019-05-19T10:33:22.142Z,1.50
2019-05-19T10:35:53.943Z,1.52
2019-05-19T10:38:25.631Z,1.30
2019-05-19T10:40:57.542Z,1.27
2019-05-19T10:43:37.391Z,1.40
2019-05-19T10:46:09.035Z,1.70
2019-05-19T10:48:40.383Z,1.60
2019-05-19T10:51:12.411Z,1.70
2019-05-19T10:53:43.795Z,1.77
2019-05-19T10:56:21.844Z,2.00
2019-05-19T10:58:53.499Z,1.72
2019-05-19T11:01:25.084Z,2.08
2019-05-19T11:03:56.613Z,1.50
2019-05-19T11:06:28.055Z,1.37
2019-05-19T11:08:58.691Z,1.75
2019-05-19T11:11:29.989Z,1.72
2019-05-19T11:14:00.931Z,2.00
2019-05-19T11:16:32.496Z,1.80
2019-05-19T11:19:03.875Z,1.40
2019-05-19T11:21:35.399Z,1.45
2019-05-19T11:24:06.530Z,1.30
2019-05-19T11:26:37.773Z,1.20
2019-05-19T11:29:09.163Z,1.40
2019-05-19T11:31:40.890Z,1.20
2019-05-19T11:34:12.222Z,1.02
2019-05-19T11:36:44.145Z,1.37
2019-05-19T11:39:15.169Z,1.45
2019-05-19T11:41:46.670Z,1.95
2019-05-19T11:44:17.932Z,1.15
2019-05-19T11:46:49.999Z,1.20
2019-05-19T11:49:21.729Z,1.30
2019-05-19T11:51:53.454Z,1.40
2019-05-19T11:54:25.375Z,1.45
2019-05-19T11:56:56.693Z,1.15
2019-05-19T11:59:27.887Z,1.45
2019-05-19T12:01:59.517Z,1.30
2019-05-19T12:04:30.861Z,1.35
2019-05-19T12:07:02.826Z,1.70
2019-05-19T12:09:34.619Z,1.52
2019-05-19T12:12:04.971Z,1.60
2019-05-19T12:14:36.677Z,1.55
2019-05-19T12:17:07.912Z,1.77
2019-05-19T12:19:39.777Z,1.32
2019-05-19T12:22:11.402Z,1.85
2019-05-19T12:24:42.290Z,1.40
2019-05-19T12:27:13.752Z,1.57
2019-05-19T12:29:44.421Z,1.55
2019-05-19T12:32:15.787Z,1.50
2019-05-19T12:34:46.873Z,1.35
2019-05-19T12:37:18.262Z,1.30
2019-05-19T12:39:49.852Z,1.62
2019-05-19T12:42:21.565Z,1.45
2019-05-19T12:44:52.929Z,1.67
2019-05-19T12:47:24.296Z,1.95
2019-05-19T12:49:55.342Z,1.80
2019-05-19T12:52:26.287Z,2.00
2019-05-19T12:54:57.388Z,2.12
2019-05-19T12:57:28.628Z,1.95
2019-05-19T12:59:59.938Z,1.70
2019-05-19T13:02:31.676Z,1.80
2019-05-19T13:05:05.511Z,1.67
2019-05-19T13:07:36.024Z,1.85
2019-05-19T13:10:08.161Z,1.60
2019-05-19T13:12:39.799Z,1.47
2019-05-19T13:15:11.976Z,1.30
2019-05-19T13:17:43.391Z,1.25
2019-05-19T13:20:15.107Z,1.40
2019-05-19T13:22:47.256Z,2.10
2019-05-19T13:25:18.283Z,1.70
2019-05-19T13:27:50.094Z,1.40
2019-05-19T13:30:21.107Z,1.42
2019-05-19T13:32:52.835Z,1.40
2019-05-19T13:35:24.156Z,1.57
2019-05-19T13:37:54.814Z,1.60
2019-05-19T13:40:26.127Z,1.70
2019-05-19T13:42:57.852Z,1.25
2019-05-19T13:45:29.479Z,1.52
2019-05-19T13:48:01.252Z,1.82
2019-05-19T13:50:36.500Z,1.50
2019-05-19T13:53:07.545Z,2.02
2019-05-19T13:55:38.863Z,1.50
2019-05-19T13:58:10.648Z,2.00
2019-05-19T14:00:41.957Z,1.90
2019-05-19T14:03:13.239Z,1.82
2019-05-19T14:05:44.256Z,2.10
2019-05-19T14:08:16.442Z,1.90
2019-05-19T14:10:47.134Z,1.85
2019-05-19T14:13:19.131Z,2.00
2019-05-19T14:15:50.626Z,1.95
2019-05-19T14:18:21.545Z,1.95
2019-05-19T14:20:52.879Z,1.72
2019-05-19T14:23:24.614Z,1.80
2019-05-19T14:25:56.209Z,2.00
2019-05-19T14:28:28.755Z,1.87
2019-05-19T14:30:59.681Z,1.70
2019-05-19T14:33:30.704Z,1.60
2019-05-19T14:36:02.458Z,1.80
2019-05-19T14:38:35.985Z,2.12
2019-05-19T14:41:06.931Z,1.80
2019-05-19T14:43:37.969Z,1.85
2019-05-19T14:46:09.293Z,1.62
2019-05-19T14:48:40.981Z,1.80
2019-05-19T14:51:12.525Z,1.62
2019-05-19T14:53:43.883Z,1.62
2019-05-19T14:56:15.536Z,1.50
2019-05-19T14:58:47.402Z,1.57
2019-05-19T15:01:19.160Z,1.65
2019-05-19T15:03:50.222Z,1.62
2019-05-19T15:06:21.539Z,1.52
2019-05-19T15:08:53.186Z,1.60
2019-05-19T15:11:24.226Z,1.40
2019-05-19T15:13:56.005Z,1.42
2019-05-19T15:16:27.261Z,1.40
2019-05-19T15:18:59.308Z,1.87
2019-05-19T15:21:31.956Z,1.70
2019-05-19T15:24:03.216Z,1.60
2019-05-19T15:26:35.203Z,1.20
2019-05-19T15:29:05.808Z,1.52
2019-05-19T15:31:37.489Z,1.60
2019-05-19T15:34:08.735Z,1.82
2019-05-19T15:36:40.292Z,1.52
2019-05-19T15:39:14.442Z,1.45
2019-05-19T15:41:44.725Z,1.60
2019-05-19T15:44:16.010Z,1.65
2019-05-19T15:46:47.396Z,1.60
2019-05-19T15:49:19.156Z,1.50
2019-05-19T15:52:02.027Z,1.57
2019-05-19T15:54:23.713Z,1.60
2019-05-19T15:56:55.579Z,1.60
2019-05-19T15:59:27.432Z,1.60
2019-05-19T16:01:58.484Z,1.50
2019-05-19T16:04:30.536Z,1.35
2019-05-19T16:07:01.822Z,1.50
2019-05-19T16:09:33.146Z,1.30
2019-05-19T16:12:04.767Z,1.60
2019-05-19T16:14:36.319Z,1.55
2019-05-19T16:17:07.153Z,1.70
2019-05-19T16:19:39.136Z,1.67
2019-05-19T16:22:10.254Z,1.73
2019-05-19T16:24:41.875Z,1.80
2019-05-19T16:27:13.180Z,2.47
2019-05-19T16:29:46.169Z,1.80
2019-05-19T16:32:17.717Z,2.17
2019-05-19T16:34:49.064Z,1.70
2019-05-19T16:37:20.303Z,2.07
2019-05-19T16:39:52.055Z,2.10
2019-05-19T16:42:23.433Z,2.50
2019-05-19T16:44:55.379Z,2.90
2019-05-19T16:47:27.173Z,3.23
2019-05-19T16:49:59.308Z,4.00
2019-05-19T16:52:30.841Z,5.27
2019-05-19T16:55:26.386Z,4.43
2019-05-19T16:57:58.123Z,5.23
2019-05-19T17:00:30.003Z,5.60
2019-05-19T17:03:01.478Z,6.03
2019-05-19T17:05:32.693Z,5.87
2019-05-19T17:08:04.051Z,4.90
2019-05-19T17:10:37.274Z,5.77
2019-05-19T17:13:08.263Z,5.70
2019-05-19T17:15:39.701Z,4.37
2019-05-19T17:18:11.134Z,4.33
2019-05-19T17:20:56.608Z,4.47
2019-05-19T17:23:28.630Z,5.27
2019-05-19T17:26:00.517Z,5.00
2019-05-19T17:28:31.821Z,4.97
2019-05-19T17:31:02.801Z,4.13
2019-05-19T17:33:33.791Z,4.90
2019-05-19T17:36:05.043Z,3.20
2019-05-19T17:38:36.888Z,3.20
2019-05-19T17:41:08.209Z,3.60
2019-05-19T17:43:40.580Z,3.83
2019-05-19T17:46:11.992Z,3.10
2019-05-19T17:48:43.125Z,3.80
2019-05-19T17:51:14.461Z,4.20
2019-05-19T17:53:46.561Z,3.33
2019-05-19T17:56:18.184Z,3.60
2019-05-19T17:58:50.754Z,3.20
2019-05-19T18:01:22.398Z,3.90
2019-05-19T18:03:54.190Z,4.13
2019-05-19T18:06:29.735Z,3.90
2019-05-19T18:09:01.030Z,4.00
2019-05-19T18:11:31.917Z,4.47
2019-05-19T18:14:03.498Z,4.43
2019-05-19T18:16:34.456Z,4.10
2019-05-19T18:19:06.334Z,3.70
2019-05-19T18:21:38.422Z,3.60
2019-05-19T18:24:13.955Z,3.63
2019-05-19T18:26:45.577Z,2.83
2019-05-19T18:29:30.544Z,2.70
2019-05-19T18:31:52.174Z,2.90
2019-05-19T18:34:23.467Z,2.73
2019-05-19T18:36:56.819Z,3.50
2019-05-19T18:39:39.626Z,3.03
2019-05-19T18:42:21.428Z,3.30
2019-05-19T18:45:03.370Z,4.10
2019-05-19T18:47:44.105Z,8.40
2019-05-19T18:50:31.133Z,6.00
2019-05-19T18:53:01.610Z,4.17
2019-05-19T18:55:33.231Z,3.43
2019-05-19T18:58:11.364Z,4.13
2019-05-19T19:00:46.049Z,3.70
2019-05-19T19:03:21.501Z,4.43
2019-05-19T19:05:54.914Z,4.07
2019-05-19T19:08:28.195Z,4.73
2019-05-19T19:10:59.765Z,4.17
2019-05-19T19:13:31.796Z,4.03
2019-05-19T19:16:05.908Z,4.10
2019-05-19T19:18:50.278Z,4.53
2019-05-19T19:21:23.128Z,4.33
2019-05-19T19:23:59.967Z,4.47
2019-05-19T19:26:34.627Z,4.10
2019-05-19T19:29:11.321Z,3.93
2019-05-19T19:31:48.893Z,4.40
2019-05-19T19:34:21.326Z,5.20
2019-05-19T19:36:57.479Z,5.37
2019-05-19T19:39:33.408Z,4.47
2019-05-19T19:42:09.270Z,4.60
2019-05-19T19:44:43.680Z,4.77
2019-05-19T19:47:16.701Z,5.10
2019-05-19T19:49:48.901Z,5.67
2019-05-19T19:52:25.144Z,4.43
2019-05-19T19:55:00.288Z,5.13
2019-05-19T19:57:31.748Z,5.70
2019-05-19T20:00:17.945Z,5.43
2019-05-19T20:02:47.555Z,5.70
2019-05-19T20:05:24.545Z,5.40
2019-05-19T20:08:00.707Z,5.87
2019-05-19T20:10:44.733Z,5.80
2019-05-19T20:13:27.769Z,6.37
2019-05-19T20:16:05.551Z,6.10
2019-05-19T20:18:51.242Z,5.90
2019-05-19T20:21:35.242Z,6.63
2019-05-19T20:24:06.356Z,5.47
2019-05-19T20:26:47.352Z,5.60
2019-05-19T20:29:19.745Z,4.87
2019-05-19T20:31:53.772Z,5.27
2019-05-19T20:34:25.498Z,4.87
2019-05-19T20:37:03.216Z,5.60
2019-05-19T20:39:35.816Z,5.50
2019-05-19T20:42:07.043Z,6.00
2019-05-19T20:44:38.429Z,6.03
2019-05-19T20:47:12.473Z,6.17
2019-05-19T20:49:44.445Z,6.47
2019-05-19T20:52:17.715Z,5.40
2019-05-19T20:55:10.951Z,6.23
2019-05-19T20:57:52.451Z,5.67
2019-05-19T21:00:25.434Z,6.47
2019-05-19T21:03:05.615Z,6.53
2019-05-19T21:05:38.960Z,6.07
2019-05-19T21:08:13.690Z,6.43
2019-05-19T21:10:51.988Z,5.57
2019-05-19T21:13:29.530Z,6.10
2019-05-19T21:16:04.310Z,5.00
2019-05-19T21:18:36.671Z,4.93
2019-05-19T21:21:15.476Z,4.80
2019-05-19T21:23:53.263Z,4.70
2019-05-19T21:26:27.283Z,5.00
2019-05-19T21:29:05.145Z,4.97
2019-05-19T21:31:43.820Z,5.37
2019-05-19T21:34:18.796Z,4.97
2019-05-19T21:36:52.424Z,4.63
2019-05-19T21:39:27.036Z,5.00
2019-05-19T21:42:03.080Z,5.17
2019-05-19T21:44:37.300Z,4.60
2019-05-19T21:47:18.681Z,4.37
2019-05-19T21:49:54.604Z,4.40
2019-05-19T21:52:29.352Z,4.73
2019-05-19T21:55:01.472Z,3.60
2019-05-19T21:57:36.411Z,4.00
2019-05-19T22:00:12.899Z,3.37
2019-05-19T22:03:01.901Z,3.40
2019-05-19T22:05:36.137Z,3.67
2019-05-19T22:08:15.275Z,3.20
2019-05-19T22:10:56.990Z,3.40
2019-05-19T22:13:34.263Z,3.17
2019-05-19T22:16:13.270Z,3.20
2019-05-19T22:18:46.287Z,3.13
2019-05-19T22:21:17.242Z,3.07
2019-05-19T22:23:55.398Z,3.17
2019-05-19T22:26:28.767Z,3.53
2019-05-19T22:29:03.918Z,3.40
2019-05-19T22:31:38.717Z,3.60
2019-05-19T22:34:15.578Z,3.73
2019-05-19T22:36:52.144Z,3.27
2019-05-19T22:39:25.010Z,3.80
2019-05-19T22:42:03.421Z,4.10
2019-05-19T22:44:40.215Z,3.43
2019-05-19T22:47:19.836Z,2.97
2019-05-19T22:49:57.603Z,2.90
2019-05-19T22:52:35.258Z,3.30
2019-05-19T22:55:09.582Z,2.90
2019-05-19T22:57:45.649Z,2.80
2019-05-19T23:00:19.612Z,3.03
2019-05-19T23:02:51.301Z,3.10
2019-05-19T23:05:23.540Z,3.00
2019-05-19T23:07:58.048Z,3.10
2019-05-19T23:10:34.277Z,3.50
2019-05-19T23:13:08.456Z,3.53
2019-05-19T23:15:41.405Z,3.20
2019-05-19T23:18:12.575Z,3.70
2019-05-19T23:20:46.771Z,3.77
2019-05-19T23:23:22.432Z,4.63
2019-05-19T23:25:55.828Z,3.77
2019-05-19T23:28:28.740Z,3.30
2019-05-19T23:31:03.376Z,3.13
2019-05-19T23:33:36.739Z,3.83
2019-05-19T23:36:09.088Z,3.90
2019-05-19T23:38:43.312Z,3.70
2019-05-19T23:41:19.686Z,3.60
2019-05-19T23:43:50.676Z,3.57
2019-05-19T23:46:26.103Z,3.83
2019-05-19T23:48:59.607Z,3.93
2019-05-19T23:51:32.828Z,4.33
2019-05-19T23:54:06.093Z,4.20
2019-05-19T23:56:41.158Z,4.20
2019-05-19T23:59:16.914Z,4.20
